Humidity-temperature Sensor

Selected Measurement Type: Air Temperature

 
Air Temperature [°C]     6 entries per hour
Showing data from 7/6/2020 (00:00:00 Z) to 6/29/2020 (00:01:00 Z)
Previous Next [ Day | 3-Days | 7-Days ]
First Last
Prev [ Day | 3-Days | 7-Days ] Next
First Last

Start Time:     :
End Time:     :     
Time (in GMT) :00 :50 :40 :30 :20 :10
Previous Next [ Day | 3-Days | 7-Days ]
First Last
Prev [ Day | 3-Days | 7-Days ] Next
First Last


123 => good data
MM => data is determined as missing
-- => data not received/configured
Back to Top Back to Top
7/6/2020 00:00 to 23:10 25.09 25.23 25.24 25.20 25.19 25.17
7/5/2020 23:00 to 22:10 25.12 25.14 25.24 25.11 25.08 24.88
7/5/2020 22:00 to 21:10 24.61 25.03 25.01 24.98 25.06 24.99
7/5/2020 21:00 to 20:10 24.92 25.13 25.17 25.18 25.27 25.18
7/5/2020 20:00 to 19:10 25.16 25.19 25.29 25.16 25.24 25.08
7/5/2020 19:00 to 18:10 25.19 25.14 25.18 25.14 25.13 25.20
7/5/2020 18:00 to 17:10 25.03 25.10 25.18 25.13 25.08 24.97
7/5/2020 17:00 to 16:10 24.77 24.53 24.72 24.83 24.84 24.88
7/5/2020 16:00 to 15:10 24.86 25.03 25.17 24.93 25.15 25.22
7/5/2020 15:00 to 14:10 24.62 24.24 23.15 23.43 24.72 24.79
7/5/2020 14:00 to 13:10 24.80 24.87 24.82 24.80 24.74 24.68
7/5/2020 13:00 to 12:10 24.79 24.82 24.46 23.96 23.50 23.63
7/5/2020 12:00 to 11:10 23.91 24.24 24.38 24.27 24.29 24.80
7/5/2020 11:00 to 10:10 24.76 24.74 24.75 24.75 24.87 24.84
7/5/2020 10:00 to 9:10 24.81 24.82 24.85 24.62 24.85 24.76
7/5/2020 09:00 to 8:10 24.81 24.78 24.87 24.69 24.66 24.75
7/5/2020 08:00 to 7:10 24.71 24.75 24.75 24.79 24.79 24.73
7/5/2020 07:00 to 6:10 24.70 24.74 24.78 24.79 24.76 24.78
7/5/2020 06:00 to 5:10 24.77 24.69 24.67 24.85 24.81 24.74
7/5/2020 05:00 to 4:10 24.67 24.66 24.62 24.53 24.65 24.55
7/5/2020 04:00 to 3:10 24.80 24.84 24.84 24.82 24.81 24.84
7/5/2020 03:00 to 2:10 24.83 24.80 24.85 24.83 24.64 24.66
7/5/2020 02:00 to 1:10 24.63 24.57 24.58 24.63 24.44 24.66
7/5/2020 01:00 to 0:10 24.56 24.66 24.55 24.53 24.57 24.65
7/5/2020 00:00 to 23:10 24.66 24.69 24.50 24.61 25.09 24.96
7/4/2020 23:00 to 22:10 25.06 24.96 24.95 25.03 25.01 24.93
7/4/2020 22:00 to 21:10 24.89 24.92 24.91 24.95 24.85 24.81
7/4/2020 21:00 to 20:10 24.91 24.90 24.89 24.89 24.83 24.78
7/4/2020 20:00 to 19:10 24.83 24.80 24.87 24.73 24.87 24.85
7/4/2020 19:00 to 18:10 24.88 24.95 24.89 24.95 24.87 24.90
7/4/2020 18:00 to 17:10 24.89 24.88 24.99 25.02 25.02 24.90
7/4/2020 17:00 to 16:10 24.90 24.96 25.00 24.94 25.04 25.01
7/4/2020 16:00 to 15:10 25.05 24.98 24.93 25.02 25.06 25.03
7/4/2020 15:00 to 14:10 24.97 24.92 25.01 24.98 24.84 24.75
7/4/2020 14:00 to 13:10 24.64 24.62 24.65 24.66 24.67 24.69
7/4/2020 13:00 to 12:10 24.60 24.73 24.75 24.71 24.63 24.66
7/4/2020 12:00 to 11:10 24.66 24.59 24.51 24.36 23.85 24.11
7/4/2020 11:00 to 10:10 24.23 23.93 23.68 24.35 24.50 24.45
7/4/2020 10:00 to 9:10 24.68 24.59 24.49 24.46 24.46 24.45
7/4/2020 09:00 to 8:10 24.50 24.62 24.55 24.48 24.53 24.58
7/4/2020 08:00 to 7:10 24.56 24.51 24.53 24.33 24.08 24.61
7/4/2020 07:00 to 6:10 24.54 24.57 24.53 24.51 24.51 24.48
7/4/2020 06:00 to 5:10 24.48 24.48 24.57 24.65 24.63 24.66
7/4/2020 05:00 to 4:10 24.61 24.51 24.71 24.60 24.67 24.70
7/4/2020 04:00 to 3:10 24.78 24.63 24.63 24.62 24.72 24.58
7/4/2020 03:00 to 2:10 24.56 24.65 24.58 24.75 24.75 24.64
7/4/2020 02:00 to 1:10 24.83 24.70 24.81 24.82 24.71 24.81
7/4/2020 01:00 to 0:10 24.78 24.86 24.82 24.85 24.97 25.02
7/4/2020 00:00 to 23:10 25.07 24.81 25.02 24.94 24.89 25.04
7/3/2020 23:00 to 22:10 24.98 24.98 24.88 24.87 24.82 24.87
7/3/2020 22:00 to 21:10 24.83 24.83 24.70 24.81 24.85 24.84
7/3/2020 21:00 to 20:10 24.83 24.77 24.72 24.74 24.69 24.66
7/3/2020 20:00 to 19:10 24.68 24.67 24.74 24.54 24.75 24.72
7/3/2020 19:00 to 18:10 24.66 24.68 24.67 24.59 24.70 24.71
7/3/2020 18:00 to 17:10 24.80 24.79 24.72 24.68 24.68 24.66
7/3/2020 17:00 to 16:10 24.80 24.83 24.76 24.84 24.74 24.77
7/3/2020 16:00 to 15:10 24.71 24.75 24.54 24.66 24.63 24.74
7/3/2020 15:00 to 14:10 24.70 24.80 24.56 24.54 24.46 24.41
7/3/2020 14:00 to 13:10 24.33 24.44 24.35 24.35 24.39 24.50
7/3/2020 13:00 to 12:10 24.46 24.44 24.44 24.26 24.31 24.44
7/3/2020 12:00 to 11:10 24.41 24.34 24.30 24.34 24.32 24.31
7/3/2020 11:00 to 10:10 24.38 24.42 24.40 24.44 24.54 24.41
7/3/2020 10:00 to 9:10 24.50 24.33 24.32 24.50 24.35 24.34
7/3/2020 09:00 to 8:10 24.36 24.37 24.55 24.42 24.44 24.57
7/3/2020 08:00 to 7:10 24.54 24.60 24.51 24.51 24.59 24.54
7/3/2020 07:00 to 6:10 24.62 24.58 24.47 24.46 24.43 24.47
7/3/2020 06:00 to 5:10 24.43 24.59 24.58 24.58 24.53 24.57
7/3/2020 05:00 to 4:10 24.69 24.61 24.66 24.49 24.53 24.61
7/3/2020 04:00 to 3:10 24.71 24.69 24.62 24.69 24.65 24.61
7/3/2020 03:00 to 2:10 24.73 24.72 24.68 24.67 24.56 24.60
7/3/2020 02:00 to 1:10 24.66 24.66 24.71 24.71 24.72 24.79
7/3/2020 01:00 to 0:10 24.77 24.94 24.89 24.90 24.85 24.91
7/3/2020 00:00 to 23:10 24.89 24.85 24.87 24.94 24.76 24.89
7/2/2020 23:00 to 22:10 24.81 24.89 24.84 24.79 24.76 24.78
7/2/2020 22:00 to 21:10 24.85 24.97 24.83 24.84 24.89 24.91
7/2/2020 21:00 to 20:10 24.85 24.80 25.02 24.94 24.91 24.87
7/2/2020 20:00 to 19:10 24.92 24.86 24.88 24.86 24.89 24.90
7/2/2020 19:00 to 18:10 24.88 24.66 24.76 24.79 24.72 24.68
7/2/2020 18:00 to 17:10 24.68 24.71 24.62 24.66 24.67 24.69
7/2/2020 17:00 to 16:10 24.74 24.74 24.82 24.79 24.81 24.79
7/2/2020 16:00 to 15:10 24.81 24.75 24.64 24.73 24.73 24.76
7/2/2020 15:00 to 14:10 24.81 24.80 24.85 24.88 24.74 24.68
7/2/2020 14:00 to 13:10 24.54 24.25 24.25 24.21 24.14 24.26
7/2/2020 13:00 to 12:10 24.16 24.21 24.10 24.17 24.17 24.22
7/2/2020 12:00 to 11:10 24.09 24.21 24.20 24.16 24.20 24.21
7/2/2020 11:00 to 10:10 24.21 24.26 24.24 24.26 24.12 24.23
7/2/2020 10:00 to 9:10 24.26 24.35 24.15 24.29 24.21 24.24
7/2/2020 09:00 to 8:10 24.22 24.28 24.26 24.14 24.31 24.28
7/2/2020 08:00 to 7:10 24.40 24.23 24.38 24.42 24.38 24.35
7/2/2020 07:00 to 6:10 24.46 24.42 24.50 24.49 24.54 24.45
7/2/2020 06:00 to 5:10 24.46 24.50 24.60 24.54 24.61 24.62
7/2/2020 05:00 to 4:10 24.58 24.64 24.49 24.49 24.55 24.64
7/2/2020 04:00 to 3:10 24.60 24.72 24.78 24.67 24.61 24.57
7/2/2020 03:00 to 2:10 24.59 24.56 24.61 24.58 24.65 24.55
7/2/2020 02:00 to 1:10 24.67 24.64 24.57 24.64 24.68 24.65
7/2/2020 01:00 to 0:10 24.71 24.70 24.74 24.73 24.68 24.76
7/2/2020 00:00 to 23:10 24.73 24.52 24.62 24.58 24.81 24.75
7/1/2020 23:00 to 22:10 24.75 24.67 24.69 24.78 24.88 24.74
7/1/2020 22:00 to 21:10 24.75 24.88 24.83 24.77 24.82 24.77
7/1/2020 21:00 to 20:10 24.70 24.72 24.73 24.73 24.58 24.60
7/1/2020 20:00 to 19:10 24.62 24.61 24.67 24.52 24.61 24.56
7/1/2020 19:00 to 18:10 24.55 24.52 24.64 24.58 24.64 24.52
7/1/2020 18:00 to 17:10 24.48 24.35 24.37 24.25 24.03 23.76
7/1/2020 17:00 to 16:10 23.65 23.45 23.27 23.19 22.88 22.68
7/1/2020 16:00 to 15:10 22.74 23.53 23.34 23.19 23.61 23.30
7/1/2020 15:00 to 14:10 23.42 23.42 23.77 24.55 24.57 24.43
7/1/2020 14:00 to 13:10 24.54 24.61 24.50 24.48 24.32 24.56
7/1/2020 13:00 to 12:10 24.46 24.48 24.39 24.42 24.43 24.40
7/1/2020 12:00 to 11:10 24.33 24.40 24.32 24.38 24.30 24.40
7/1/2020 11:00 to 10:10 24.40 24.42 24.44 24.31 24.41 24.46
7/1/2020 10:00 to 9:10 24.31 24.37 24.41 24.45 24.32 24.52
7/1/2020 09:00 to 8:10 24.49 24.62 24.51 24.60 24.47 24.46
7/1/2020 08:00 to 7:10 24.51 24.46 24.48 24.49 24.48 24.49
7/1/2020 07:00 to 6:10 24.48 24.52 24.66 24.58 24.65 24.64
7/1/2020 06:00 to 5:10 24.57 24.58 24.58 24.67 24.70 24.62
7/1/2020 05:00 to 4:10 24.76 24.61 24.61 24.65 24.68 24.69
7/1/2020 04:00 to 3:10 24.71 24.63 24.74 24.77 24.75 24.89
7/1/2020 03:00 to 2:10 24.67 24.75 24.82 24.78 24.88 24.90
7/1/2020 02:00 to 1:10 24.87 24.87 24.76 24.88 24.78 24.86
7/1/2020 01:00 to 0:10 25.01 24.79 24.96 24.90 24.80 24.95
7/1/2020 00:00 to 23:10 24.77 24.79 24.81 24.86 24.69 24.75
6/30/2020 23:00 to 22:10 24.81 24.82 24.73 24.73 24.85 24.70
6/30/2020 22:00 to 21:10 24.82 24.80 24.74 24.81 24.66 24.75
6/30/2020 21:00 to 20:10 24.69 24.69 24.65 24.63 24.71 24.65
6/30/2020 20:00 to 19:10 24.60 24.59 24.72 24.56 24.69 24.63
6/30/2020 19:00 to 18:10 24.56 24.63 24.66 24.72 24.72 24.69
6/30/2020 18:00 to 17:10 24.66 24.76 24.68 24.63 24.76 24.78
6/30/2020 17:00 to 16:10 24.63 24.76 24.70 24.66 24.72 24.67
6/30/2020 16:00 to 15:10 24.62 24.63 24.70 24.62 24.54 24.56
6/30/2020 15:00 to 14:10 24.59 24.71 24.60 24.65 24.39 24.40
6/30/2020 14:00 to 13:10 24.49 24.54 24.54 24.46 24.47 24.45
6/30/2020 13:00 to 12:10 24.50 24.43 24.47 24.48 24.49 24.48
6/30/2020 12:00 to 11:10 24.43 24.49 24.48 24.58 24.54 24.50
6/30/2020 11:00 to 10:10 24.59 24.55 24.48 24.47 24.53 24.45
6/30/2020 10:00 to 9:10 24.47 24.57 24.53 24.54 24.57 24.48
6/30/2020 09:00 to 8:10 24.56 24.51 24.47 24.52 24.66 24.61
6/30/2020 08:00 to 7:10 24.68 24.61 24.70 24.69 24.67 24.80
6/30/2020 07:00 to 6:10 24.73 24.67 24.77 24.83 24.70 24.81
6/30/2020 06:00 to 5:10 24.76 24.78 24.73 24.68 24.84 24.79
6/30/2020 05:00 to 4:10 24.85 24.81 24.87 24.84 24.82 24.75
6/30/2020 04:00 to 3:10 24.74 24.79 24.68 24.79 24.80 24.78
6/30/2020 03:00 to 2:10 24.81 24.74 24.75 24.87 24.75 24.82
6/30/2020 02:00 to 1:10 24.70 24.76 24.73 24.68 24.64 24.69
6/30/2020 01:00 to 0:10 24.74 24.74 24.75 24.81 24.82 24.73
6/30/2020 00:00 to 23:10 24.81 24.75 24.81 24.75 24.75 24.74
6/29/2020 23:00 to 22:10 24.87 24.69 24.67 24.74 24.75 24.73
6/29/2020 22:00 to 21:10 24.72 24.60 24.83 24.87 24.70 24.75
6/29/2020 21:00 to 20:10 24.85 24.85 24.79 24.70 24.84 24.75
6/29/2020 20:00 to 19:10 24.78 24.73 24.83 24.73 24.66 24.69
6/29/2020 19:00 to 18:10 24.64 24.72 24.76 24.80 24.71 24.80
6/29/2020 18:00 to 17:10 24.82 24.74 24.80 24.82 24.69 24.79
6/29/2020 17:00 to 16:10 24.81 24.86 24.76 24.77 24.91 24.91
6/29/2020 16:00 to 15:10 24.97 24.98 24.98 24.98 25.00 24.97
6/29/2020 15:00 to 14:10 24.85 25.00 25.03 24.88 24.79 24.92
6/29/2020 14:00 to 13:10 24.59 24.72 24.69 24.62 24.65 24.52
6/29/2020 13:00 to 12:10 24.48 24.54 24.55 24.51 24.59 24.56
6/29/2020 12:00 to 11:10 24.58 24.55 24.54 24.58 24.61 24.50
6/29/2020 11:00 to 10:10 24.73 24.58 24.56 24.63 24.67 24.63
6/29/2020 10:00 to 9:10 24.64 24.70 24.55 24.73 24.70 24.74
6/29/2020 09:00 to 8:10 24.70 24.58 24.73 24.71 24.65 24.67
6/29/2020 08:00 to 7:10 24.71 24.77 24.74 24.71 24.71 24.65
6/29/2020 07:00 to 6:10 24.81 24.85 24.75 24.73 24.69 24.82
6/29/2020 06:00 to 5:10 24.83 24.82 24.82 24.83 24.92 24.91
6/29/2020 05:00 to 4:10 24.81 24.99 24.99 25.01 24.92 25.00
6/29/2020 04:00 to 3:10 24.92 24.86 24.90 24.84 24.92 25.05
6/29/2020 03:00 to 2:10 24.89 24.98 24.82 24.93 25.06 24.97
6/29/2020 02:00 to 1:10 24.90 25.01 24.86 24.78 24.97 24.95
6/29/2020 01:00 to 0:10 24.98 24.88 24.92 24.92 24.98 24.98